sensor_id;sensor_type;location;lat;lon;timestamp;P1;durP1;ratioP1;P2;durP2;ratioP2
25331;SDS011;13284;52.748;13.452;2022-09-21T00:01:12;3.80;;;2.80;;
25331;SDS011;13284;52.748;13.452;2022-09-21T00:03:42;2.30;;;2.10;;
25331;SDS011;13284;52.748;13.452;2022-09-21T00:06:13;3.13;;;2.83;;
25331;SDS011;13284;52.748;13.452;2022-09-21T00:08:41;3.20;;;2.60;;
25331;SDS011;13284;52.748;13.452;2022-09-21T00:11:10;7.07;;;3.03;;
25331;SDS011;13284;52.748;13.452;2022-09-21T00:13:36;3.27;;;2.97;;
25331;SDS011;13284;52.748;13.452;2022-09-21T00:16:06;3.00;;;2.47;;
25331;SDS011;13284;52.748;13.452;2022-09-21T00:18:33;3.10;;;2.80;;
25331;SDS011;13284;52.748;13.452;2022-09-21T00:20:59;3.43;;;2.70;;
25331;SDS011;13284;52.748;13.452;2022-09-21T00:23:27;3.30;;;2.87;;
25331;SDS011;13284;52.748;13.452;2022-09-21T00:26:02;2.53;;;2.33;;
25331;SDS011;13284;52.748;13.452;2022-09-21T00:28:35;2.37;;;2.17;;
25331;SDS011;13284;52.748;13.452;2022-09-21T00:31:05;2.90;;;2.37;;
25331;SDS011;13284;52.748;13.452;2022-09-21T00:33:32;5.83;;;2.07;;
25331;SDS011;13284;52.748;13.452;2022-09-21T00:36:05;2.20;;;1.80;;
25331;SDS011;13284;52.748;13.452;2022-09-21T00:38:33;2.40;;;2.13;;
25331;SDS011;13284;52.748;13.452;2022-09-21T00:40:59;3.73;;;2.20;;
25331;SDS011;13284;52.748;13.452;2022-09-21T00:43:25;2.63;;;2.43;;
25331;SDS011;13284;52.748;13.452;2022-09-21T00:45:53;2.53;;;2.30;;
25331;SDS011;13284;52.748;13.452;2022-09-21T00:48:24;2.33;;;2.13;;
25331;SDS011;13284;52.748;13.452;2022-09-21T00:50:51;2.10;;;2.00;;
25331;SDS011;13284;52.748;13.452;2022-09-21T00:53:21;2.20;;;2.03;;
25331;SDS011;13284;52.748;13.452;2022-09-21T00:55:47;3.40;;;2.67;;
25331;SDS011;13284;52.748;13.452;2022-09-21T00:58:21;4.87;;;2.63;;
25331;SDS011;13284;52.748;13.452;2022-09-21T01:00:52;3.10;;;2.80;;
25331;SDS011;13284;52.748;13.452;2022-09-21T01:03:19;3.03;;;2.83;;
25331;SDS011;13284;52.748;13.452;2022-09-21T01:05:44;3.90;;;3.47;;
25331;SDS011;13284;52.748;13.452;2022-09-21T01:08:10;4.50;;;3.07;;
25331;SDS011;13284;52.748;13.452;2022-09-21T01:16:38;2.93;;;2.63;;
25331;SDS011;13284;52.748;13.452;2022-09-21T01:19:25;3.80;;;2.70;;
25331;SDS011;13284;52.748;13.452;2022-09-21T01:25:03;2.53;;;2.33;;
25331;SDS011;13284;52.748;13.452;2022-09-21T01:27:50;2.23;;;2.03;;
25331;SDS011;13284;52.748;13.452;2022-09-21T01:30:29;2.83;;;2.07;;
25331;SDS011;13284;52.748;13.452;2022-09-21T01:33:09;2.17;;;2.07;;
25331;SDS011;13284;52.748;13.452;2022-09-21T01:35:41;2.83;;;2.03;;
25331;SDS011;13284;52.748;13.452;2022-09-21T01:38:13;3.00;;;1.90;;
25331;SDS011;13284;52.748;13.452;2022-09-21T01:40:49;2.10;;;1.80;;
25331;SDS011;13284;52.748;13.452;2022-09-21T01:43:20;2.00;;;1.67;;
25331;SDS011;13284;52.748;13.452;2022-09-21T01:45:49;1.90;;;1.80;;
25331;SDS011;13284;52.748;13.452;2022-09-21T01:48:18;2.83;;;2.03;;
25331;SDS011;13284;52.748;13.452;2022-09-21T01:50:48;3.50;;;1.70;;
25331;SDS011;13284;52.748;13.452;2022-09-21T01:53:25;1.77;;;1.53;;
25331;SDS011;13284;52.748;13.452;2022-09-21T01:55:57;1.87;;;1.67;;
25331;SDS011;13284;52.748;13.452;2022-09-21T02:00:57;1.67;;;1.50;;
25331;SDS011;13284;52.748;13.452;2022-09-21T02:03:25;1.70;;;1.60;;
25331;SDS011;13284;52.748;13.452;2022-09-21T02:05:57;2.50;;;2.30;;
25331;SDS011;13284;52.748;13.452;2022-09-21T02:08:25;2.07;;;1.87;;
25331;SDS011;13284;52.748;13.452;2022-09-21T02:10:51;1.73;;;1.63;;
25331;SDS011;13284;52.748;13.452;2022-09-21T02:13:18;1.73;;;1.63;;
25331;SDS011;13284;52.748;13.452;2022-09-21T02:21:46;2.00;;;1.80;;
25331;SDS011;13284;52.748;13.452;2022-09-21T02:24:46;2.70;;;1.77;;
25331;SDS011;13284;52.748;13.452;2022-09-21T02:30:13;2.00;;;1.80;;
25331;SDS011;13284;52.748;13.452;2022-09-21T02:35:20;1.87;;;1.77;;
25331;SDS011;13284;52.748;13.452;2022-09-21T02:38:17;2.47;;;1.70;;
25331;SDS011;13284;52.748;13.452;2022-09-21T02:46:15;2.77;;;1.53;;
25331;SDS011;13284;52.748;13.452;2022-09-21T02:48:50;1.83;;;1.70;;
25331;SDS011;13284;52.748;13.452;2022-09-21T02:51:24;2.47;;;1.73;;
25331;SDS011;13284;52.748;13.452;2022-09-21T02:53:54;2.80;;;1.80;;
25331;SDS011;13284;52.748;13.452;2022-09-21T02:56:22;1.73;;;1.63;;
25331;SDS011;13284;52.748;13.452;2022-09-21T02:58:50;3.20;;;1.80;;
25331;SDS011;13284;52.748;13.452;2022-09-21T03:01:20;2.13;;;1.90;;
25331;SDS011;13284;52.748;13.452;2022-09-21T03:03:48;2.20;;;2.00;;
25331;SDS011;13284;52.748;13.452;2022-09-21T03:06:13;1.77;;;1.67;;
25331;SDS011;13284;52.748;13.452;2022-09-21T03:08:39;2.10;;;1.83;;
25331;SDS011;13284;52.748;13.452;2022-09-21T03:11:05;1.83;;;1.73;;
25331;SDS011;13284;52.748;13.452;2022-09-21T03:13:31;2.10;;;2.00;;
25331;SDS011;13284;52.748;13.452;2022-09-21T03:16:00;1.50;;;1.40;;
25331;SDS011;13284;52.748;13.452;2022-09-21T03:18:28;2.67;;;2.47;;
25331;SDS011;13284;52.748;13.452;2022-09-21T03:20:54;3.40;;;2.30;;
25331;SDS011;13284;52.748;13.452;2022-09-21T03:23:19;5.13;;;2.47;;
25331;SDS011;13284;52.748;13.452;2022-09-21T03:25:45;1.63;;;1.53;;
25331;SDS011;13284;52.748;13.452;2022-09-21T03:28:11;1.97;;;1.87;;
25331;SDS011;13284;52.748;13.452;2022-09-21T03:30:38;3.00;;;2.37;;
25331;SDS011;13284;52.748;13.452;2022-09-21T03:33:05;2.70;;;1.87;;
25331;SDS011;13284;52.748;13.452;2022-09-21T03:35:31;2.60;;;2.40;;
25331;SDS011;13284;52.748;13.452;2022-09-21T03:38:00;3.70;;;1.83;;
25331;SDS011;13284;52.748;13.452;2022-09-21T03:40:26;6.70;;;2.57;;
25331;SDS011;13284;52.748;13.452;2022-09-21T03:42:52;2.30;;;1.83;;
25331;SDS011;13284;52.748;13.452;2022-09-21T03:45:19;2.60;;;2.30;;
25331;SDS011;13284;52.748;13.452;2022-09-21T03:47:58;2.30;;;2.10;;
25331;SDS011;13284;52.748;13.452;2022-09-21T03:50:25;11.47;;;7.13;;
25331;SDS011;13284;52.748;13.452;2022-09-21T03:52:52;8.93;;;5.70;;
25331;SDS011;13284;52.748;13.452;2022-09-21T03:55:18;9.80;;;6.43;;
25331;SDS011;13284;52.748;13.452;2022-09-21T03:57:44;8.40;;;6.07;;
25331;SDS011;13284;52.748;13.452;2022-09-21T04:00:09;8.07;;;6.03;;
25331;SDS011;13284;52.748;13.452;2022-09-21T04:02:36;4.67;;;4.17;;
25331;SDS011;13284;52.748;13.452;2022-09-21T04:05:04;4.57;;;4.17;;
25331;SDS011;13284;52.748;13.452;2022-09-21T04:07:30;4.67;;;4.00;;
25331;SDS011;13284;52.748;13.452;2022-09-21T04:10:00;3.23;;;2.93;;
25331;SDS011;13284;52.748;13.452;2022-09-21T04:12:26;3.73;;;3.43;;
25331;SDS011;13284;52.748;13.452;2022-09-21T04:14:51;3.10;;;2.90;;
25331;SDS011;13284;52.748;13.452;2022-09-21T04:17:17;3.13;;;2.73;;
25331;SDS011;13284;52.748;13.452;2022-09-21T04:19:42;3.37;;;2.60;;
25331;SDS011;13284;52.748;13.452;2022-09-21T04:22:12;2.40;;;2.20;;
25331;SDS011;13284;52.748;13.452;2022-09-21T04:24:38;3.00;;;2.70;;
25331;SDS011;13284;52.748;13.452;2022-09-21T04:27:04;2.17;;;1.97;;
25331;SDS011;13284;52.748;13.452;2022-09-21T04:29:31;2.50;;;2.27;;
25331;SDS011;13284;52.748;13.452;2022-09-21T04:31:56;3.00;;;1.83;;
25331;SDS011;13284;52.748;13.452;2022-09-21T04:34:22;3.23;;;2.73;;
25331;SDS011;13284;52.748;13.452;2022-09-21T04:36:47;2.80;;;2.60;;
25331;SDS011;13284;52.748;13.452;2022-09-21T04:39:13;2.93;;;2.40;;
25331;SDS011;13284;52.748;13.452;2022-09-21T04:41:38;3.40;;;3.10;;
25331;SDS011;13284;52.748;13.452;2022-09-21T04:44:06;3.87;;;2.93;;
25331;SDS011;13284;52.748;13.452;2022-09-21T04:46:31;4.77;;;3.23;;
25331;SDS011;13284;52.748;13.452;2022-09-21T04:48:57;5.23;;;3.93;;
25331;SDS011;13284;52.748;13.452;2022-09-21T04:51:23;4.37;;;3.90;;
25331;SDS011;13284;52.748;13.452;2022-09-21T04:53:48;4.03;;;3.20;;
25331;SDS011;13284;52.748;13.452;2022-09-21T04:56:14;4.37;;;3.87;;
25331;SDS011;13284;52.748;13.452;2022-09-21T04:58:40;4.27;;;3.70;;
25331;SDS011;13284;52.748;13.452;2022-09-21T05:01:06;5.37;;;4.60;;
25331;SDS011;13284;52.748;13.452;2022-09-21T05:03:32;4.83;;;4.33;;
25331;SDS011;13284;52.748;13.452;2022-09-21T05:05:57;4.40;;;4.00;;
25331;SDS011;13284;52.748;13.452;2022-09-21T05:08:24;4.10;;;3.70;;
25331;SDS011;13284;52.748;13.452;2022-09-21T05:11:20;4.70;;;4.03;;
25331;SDS011;13284;52.748;13.452;2022-09-21T05:13:46;4.97;;;4.10;;
25331;SDS011;13284;52.748;13.452;2022-09-21T05:16:13;10.33;;;7.70;;
25331;SDS011;13284;52.748;13.452;2022-09-21T05:18:39;4.63;;;3.90;;
25331;SDS011;13284;52.748;13.452;2022-09-21T05:21:05;4.50;;;3.77;;
25331;SDS011;13284;52.748;13.452;2022-09-21T05:23:32;5.80;;;4.10;;
25331;SDS011;13284;52.748;13.452;2022-09-21T05:25:58;5.63;;;3.13;;
25331;SDS011;13284;52.748;13.452;2022-09-21T05:28:24;4.07;;;3.70;;
25331;SDS011;13284;52.748;13.452;2022-09-21T05:30:52;2.50;;;2.23;;
25331;SDS011;13284;52.748;13.452;2022-09-21T05:33:23;4.97;;;2.93;;
25331;SDS011;13284;52.748;13.452;2022-09-21T05:35:59;5.53;;;2.53;;
25331;SDS011;13284;52.748;13.452;2022-09-21T05:38:33;3.10;;;2.80;;
25331;SDS011;13284;52.748;13.452;2022-09-21T05:40:59;4.33;;;3.50;;
25331;SDS011;13284;52.748;13.452;2022-09-21T05:43:25;3.50;;;2.90;;
25331;SDS011;13284;52.748;13.452;2022-09-21T05:46:01;3.40;;;3.10;;
25331;SDS011;13284;52.748;13.452;2022-09-21T05:48:40;3.40;;;2.97;;
25331;SDS011;13284;52.748;13.452;2022-09-21T05:56:39;5.60;;;2.93;;
25331;SDS011;13284;52.748;13.452;2022-09-21T06:01:55;3.10;;;2.80;;
25331;SDS011;13284;52.748;13.452;2022-09-21T06:04:38;3.57;;;3.10;;
25331;SDS011;13284;52.748;13.452;2022-09-21T06:07:04;3.93;;;3.20;;
25331;SDS011;13284;52.748;13.452;2022-09-21T06:09:29;3.63;;;2.93;;
25331;SDS011;13284;52.748;13.452;2022-09-21T06:11:55;3.40;;;3.10;;
25331;SDS011;13284;52.748;13.452;2022-09-21T06:14:20;4.77;;;3.27;;
25331;SDS011;13284;52.748;13.452;2022-09-21T06:16:49;4.47;;;3.77;;
25331;SDS011;13284;52.748;13.452;2022-09-21T06:19:15;3.67;;;3.00;;
25331;SDS011;13284;52.748;13.452;2022-09-21T06:21:41;4.20;;;3.27;;
25331;SDS011;13284;52.748;13.452;2022-09-21T06:24:07;4.07;;;3.20;;
25331;SDS011;13284;52.748;13.452;2022-09-21T06:26:33;4.07;;;3.23;;
25331;SDS011;13284;52.748;13.452;2022-09-21T06:28:59;5.53;;;3.33;;
25331;SDS011;13284;52.748;13.452;2022-09-21T06:31:26;4.80;;;2.90;;
25331;SDS011;13284;52.748;13.452;2022-09-21T06:33:51;4.10;;;2.90;;
25331;SDS011;13284;52.748;13.452;2022-09-21T06:36:17;5.20;;;3.20;;
25331;SDS011;13284;52.748;13.452;2022-09-21T06:38:43;3.97;;;2.83;;
25331;SDS011;13284;52.748;13.452;2022-09-21T06:41:08;3.93;;;3.40;;
25331;SDS011;13284;52.748;13.452;2022-09-21T06:43:34;5.00;;;3.40;;
25331;SDS011;13284;52.748;13.452;2022-09-21T06:46:00;4.57;;;3.20;;
25331;SDS011;13284;52.748;13.452;2022-09-21T06:48:27;3.40;;;2.97;;
25331;SDS011;13284;52.748;13.452;2022-09-21T06:50:57;3.43;;;2.87;;
25331;SDS011;13284;52.748;13.452;2022-09-21T06:53:24;4.40;;;3.43;;
25331;SDS011;13284;52.748;13.452;2022-09-21T06:55:50;3.37;;;2.93;;
25331;SDS011;13284;52.748;13.452;2022-09-21T06:58:16;4.10;;;3.63;;
25331;SDS011;13284;52.748;13.452;2022-09-21T07:00:43;5.43;;;3.20;;
25331;SDS011;13284;52.748;13.452;2022-09-21T07:03:12;3.03;;;2.73;;
25331;SDS011;13284;52.748;13.452;2022-09-21T07:05:38;3.77;;;3.07;;
25331;SDS011;13284;52.748;13.452;2022-09-21T07:08:04;4.50;;;3.20;;
25331;SDS011;13284;52.748;13.452;2022-09-21T07:10:30;4.07;;;3.53;;
25331;SDS011;13284;52.748;13.452;2022-09-21T07:13:00;4.77;;;3.97;;
25331;SDS011;13284;52.748;13.452;2022-09-21T07:15:30;5.30;;;4.00;;
25331;SDS011;13284;52.748;13.452;2022-09-21T07:17:56;3.80;;;3.43;;
25331;SDS011;13284;52.748;13.452;2022-09-21T07:20:22;5.43;;;4.03;;
25331;SDS011;13284;52.748;13.452;2022-09-21T07:22:47;4.93;;;4.10;;
25331;SDS011;13284;52.748;13.452;2022-09-21T07:25:14;3.87;;;3.47;;
25331;SDS011;13284;52.748;13.452;2022-09-21T07:27:42;4.60;;;3.43;;
25331;SDS011;13284;52.748;13.452;2022-09-21T07:30:08;4.00;;;3.63;;
25331;SDS011;13284;52.748;13.452;2022-09-21T07:32:34;3.30;;;3.00;;
25331;SDS011;13284;52.748;13.452;2022-09-21T07:35:00;4.33;;;3.93;;
25331;SDS011;13284;52.748;13.452;2022-09-21T07:37:26;3.40;;;3.10;;
25331;SDS011;13284;52.748;13.452;2022-09-21T07:39:52;3.20;;;3.00;;
25331;SDS011;13284;52.748;13.452;2022-09-21T07:42:18;3.20;;;2.90;;
25331;SDS011;13284;52.748;13.452;2022-09-21T07:44:45;3.50;;;3.20;;
25331;SDS011;13284;52.748;13.452;2022-09-21T07:47:11;4.00;;;3.60;;
25331;SDS011;13284;52.748;13.452;2022-09-21T07:49:38;4.53;;;3.67;;
25331;SDS011;13284;52.748;13.452;2022-09-21T07:52:05;2.80;;;2.60;;
25331;SDS011;13284;52.748;13.452;2022-09-21T07:54:30;3.77;;;3.37;;
25331;SDS011;13284;52.748;13.452;2022-09-21T07:56:57;3.10;;;2.83;;
25331;SDS011;13284;52.748;13.452;2022-09-21T07:59:42;3.30;;;3.00;;
25331;SDS011;13284;52.748;13.452;2022-09-21T08:02:07;3.63;;;3.27;;
25331;SDS011;13284;52.748;13.452;2022-09-21T08:04:33;2.47;;;2.23;;
25331;SDS011;13284;52.748;13.452;2022-09-21T08:06:58;2.50;;;2.30;;
25331;SDS011;13284;52.748;13.452;2022-09-21T08:09:24;3.77;;;2.60;;
25331;SDS011;13284;52.748;13.452;2022-09-21T08:11:49;2.80;;;2.40;;
25331;SDS011;13284;52.748;13.452;2022-09-21T08:14:15;2.73;;;2.47;;
25331;SDS011;13284;52.748;13.452;2022-09-21T08:16:47;3.17;;;2.40;;
25331;SDS011;13284;52.748;13.452;2022-09-21T08:19:13;4.83;;;2.40;;
25331;SDS011;13284;52.748;13.452;2022-09-21T08:21:39;2.83;;;2.13;;
25331;SDS011;13284;52.748;13.452;2022-09-21T08:24:05;2.40;;;1.80;;
25331;SDS011;13284;52.748;13.452;2022-09-21T08:26:30;2.50;;;2.30;;
25331;SDS011;13284;52.748;13.452;2022-09-21T08:28:57;2.80;;;2.17;;
25331;SDS011;13284;52.748;13.452;2022-09-21T08:31:23;1.70;;;1.60;;
25331;SDS011;13284;52.748;13.452;2022-09-21T08:33:49;3.97;;;2.60;;
25331;SDS011;13284;52.748;13.452;2022-09-21T08:36:16;2.43;;;2.20;;
25331;SDS011;13284;52.748;13.452;2022-09-21T08:38:42;3.73;;;2.53;;
25331;SDS011;13284;52.748;13.452;2022-09-21T08:41:18;2.97;;;1.80;;
25331;SDS011;13284;52.748;13.452;2022-09-21T08:43:57;3.40;;;2.83;;
25331;SDS011;13284;52.748;13.452;2022-09-21T08:46:28;1.90;;;1.70;;
25331;SDS011;13284;52.748;13.452;2022-09-21T08:48:57;2.00;;;1.80;;
25331;SDS011;13284;52.748;13.452;2022-09-21T08:51:31;2.77;;;2.13;;
25331;SDS011;13284;52.748;13.452;2022-09-21T08:54:11;3.50;;;2.00;;
25331;SDS011;13284;52.748;13.452;2022-09-21T08:56:46;4.40;;;2.17;;
25331;SDS011;13284;52.748;13.452;2022-09-21T08:59:12;2.70;;;2.00;;
25331;SDS011;13284;52.748;13.452;2022-09-21T09:01:49;2.77;;;2.50;;
25331;SDS011;13284;52.748;13.452;2022-09-21T09:10:32;2.40;;;1.80;;
25331;SDS011;13284;52.748;13.452;2022-09-21T09:21:16;2.40;;;1.77;;
25331;SDS011;13284;52.748;13.452;2022-09-21T09:23:55;2.03;;;1.60;;
25331;SDS011;13284;52.748;13.452;2022-09-21T09:29:26;1.50;;;1.40;;
25331;SDS011;13284;52.748;13.452;2022-09-21T09:32:03;1.63;;;1.30;;
25331;SDS011;13284;52.748;13.452;2022-09-21T09:34:34;1.73;;;1.33;;
25331;SDS011;13284;52.748;13.452;2022-09-21T09:37:13;1.73;;;1.00;;
25331;SDS011;13284;52.748;13.452;2022-09-21T09:39:40;2.13;;;0.87;;
25331;SDS011;13284;52.748;13.452;2022-09-21T09:50:01;0.80;;;0.80;;
25331;SDS011;13284;52.748;13.452;2022-09-21T09:52:28;1.13;;;0.87;;
25331;SDS011;13284;52.748;13.452;2022-09-21T09:54:55;0.70;;;0.70;;
25331;SDS011;13284;52.748;13.452;2022-09-21T09:57:29;0.87;;;0.87;;
25331;SDS011;13284;52.748;13.452;2022-09-21T09:59:58;0.97;;;0.97;;
25331;SDS011;13284;52.748;13.452;2022-09-21T10:02:33;0.93;;;0.90;;
25331;SDS011;13284;52.748;13.452;2022-09-21T10:05:17;1.67;;;0.60;;
25331;SDS011;13284;52.748;13.452;2022-09-21T10:07:45;0.60;;;0.60;;
25331;SDS011;13284;52.748;13.452;2022-09-21T10:12:46;0.80;;;0.70;;
25331;SDS011;13284;52.748;13.452;2022-09-21T10:15:12;0.97;;;0.90;;
25331;SDS011;13284;52.748;13.452;2022-09-21T10:17:40;0.80;;;0.70;;
25331;SDS011;13284;52.748;13.452;2022-09-21T10:20:06;0.60;;;0.53;;
25331;SDS011;13284;52.748;13.452;2022-09-21T10:22:45;1.43;;;0.70;;
25331;SDS011;13284;52.748;13.452;2022-09-21T10:25:16;3.90;;;0.60;;
25331;SDS011;13284;52.748;13.452;2022-09-21T10:27:44;0.70;;;0.60;;
25331;SDS011;13284;52.748;13.452;2022-09-21T10:32:54;0.67;;;0.43;;
25331;SDS011;13284;52.748;13.452;2022-09-21T10:35:22;1.20;;;0.90;;
25331;SDS011;13284;52.748;13.452;2022-09-21T10:37:48;1.33;;;0.50;;
25331;SDS011;13284;52.748;13.452;2022-09-21T10:40:40;1.53;;;1.00;;
25331;SDS011;13284;52.748;13.452;2022-09-21T10:43:18;2.47;;;0.80;;
25331;SDS011;13284;52.748;13.452;2022-09-21T10:45:56;0.80;;;0.67;;
25331;SDS011;13284;52.748;13.452;2022-09-21T10:48:22;2.40;;;0.80;;
25331;SDS011;13284;52.748;13.452;2022-09-21T10:50:50;1.00;;;0.67;;
25331;SDS011;13284;52.748;13.452;2022-09-21T10:53:30;1.60;;;0.70;;
25331;SDS011;13284;52.748;13.452;2022-09-21T10:56:01;0.60;;;0.60;;
25331;SDS011;13284;52.748;13.452;2022-09-21T10:58:40;0.70;;;0.60;;
25331;SDS011;13284;52.748;13.452;2022-09-21T11:01:46;0.70;;;0.70;;
25331;SDS011;13284;52.748;13.452;2022-09-21T11:04:15;0.80;;;0.80;;
25331;SDS011;13284;52.748;13.452;2022-09-21T11:06:51;2.13;;;0.70;;
25331;SDS011;13284;52.748;13.452;2022-09-21T11:09:37;0.70;;;0.50;;
25331;SDS011;13284;52.748;13.452;2022-09-21T11:15:08;1.17;;;0.70;;
25331;SDS011;13284;52.748;13.452;2022-09-21T11:18:17;0.80;;;0.67;;
25331;SDS011;13284;52.748;13.452;2022-09-21T11:20:51;1.00;;;0.60;;
25331;SDS011;13284;52.748;13.452;2022-09-21T11:23:48;0.60;;;0.60;;
25331;SDS011;13284;52.748;13.452;2022-09-21T11:26:34;1.90;;;0.70;;
25331;SDS011;13284;52.748;13.452;2022-09-21T11:35:05;0.43;;;0.43;;
25331;SDS011;13284;52.748;13.452;2022-09-21T11:46:10;1.07;;;0.80;;
25331;SDS011;13284;52.748;13.452;2022-09-21T11:57:22;0.63;;;0.60;;
25331;SDS011;13284;52.748;13.452;2022-09-21T12:05:38;0.63;;;0.63;;
25331;SDS011;13284;52.748;13.452;2022-09-21T12:08:45;0.50;;;0.50;;
25331;SDS011;13284;52.748;13.452;2022-09-21T12:11:27;0.50;;;0.50;;
25331;SDS011;13284;52.748;13.452;2022-09-21T12:14:14;0.43;;;0.40;;
25331;SDS011;13284;52.748;13.452;2022-09-21T12:17:01;0.50;;;0.50;;
25331;SDS011;13284;52.748;13.452;2022-09-21T12:22:20;0.60;;;0.40;;
25331;SDS011;13284;52.748;13.452;2022-09-21T12:24:53;0.50;;;0.40;;
25331;SDS011;13284;52.748;13.452;2022-09-21T12:30:16;0.60;;;0.60;;
25331;SDS011;13284;52.748;13.452;2022-09-21T12:35:16;0.97;;;0.47;;
25331;SDS011;13284;52.748;13.452;2022-09-21T12:38:13;1.20;;;0.70;;
25331;SDS011;13284;52.748;13.452;2022-09-21T12:49:04;0.50;;;0.50;;
25331;SDS011;13284;52.748;13.452;2022-09-21T12:51:43;0.60;;;0.60;;
25331;SDS011;13284;52.748;13.452;2022-09-21T12:54:19;0.80;;;0.70;;
25331;SDS011;13284;52.748;13.452;2022-09-21T12:57:15;0.30;;;0.30;;
25331;SDS011;13284;52.748;13.452;2022-09-21T13:00:08;0.80;;;0.70;;
25331;SDS011;13284;52.748;13.452;2022-09-21T13:02:44;0.67;;;0.50;;
25331;SDS011;13284;52.748;13.452;2022-09-21T13:13:04;0.63;;;0.63;;
25331;SDS011;13284;52.748;13.452;2022-09-21T13:15:47;0.80;;;0.40;;
25331;SDS011;13284;52.748;13.452;2022-09-21T13:21:16;0.50;;;0.50;;
25331;SDS011;13284;52.748;13.452;2022-09-21T13:23:51;0.43;;;0.40;;
25331;SDS011;13284;52.748;13.452;2022-09-21T13:26:28;0.63;;;0.63;;
25331;SDS011;13284;52.748;13.452;2022-09-21T13:29:23;0.83;;;0.60;;
25331;SDS011;13284;52.748;13.452;2022-09-21T13:31:53;0.50;;;0.43;;
25331;SDS011;13284;52.748;13.452;2022-09-21T13:39:35;2.20;;;0.70;;
25331;SDS011;13284;52.748;13.452;2022-09-21T13:44:54;0.57;;;0.50;;
25331;SDS011;13284;52.748;13.452;2022-09-21T13:47:27;3.20;;;0.63;;
25331;SDS011;13284;52.748;13.452;2022-09-21T13:49:56;0.50;;;0.47;;
25331;SDS011;13284;52.748;13.452;2022-09-21T13:52:33;1.13;;;0.50;;
25331;SDS011;13284;52.748;13.452;2022-09-21T13:55:19;0.50;;;0.50;;
25331;SDS011;13284;52.748;13.452;2022-09-21T13:57:53;0.93;;;0.47;;
25331;SDS011;13284;52.748;13.452;2022-09-21T14:07:59;0.60;;;0.60;;
25331;SDS011;13284;52.748;13.452;2022-09-21T14:10:27;0.60;;;0.53;;
25331;SDS011;13284;52.748;13.452;2022-09-21T14:12:56;0.70;;;0.70;;
25331;SDS011;13284;52.748;13.452;2022-09-21T14:18:07;0.67;;;0.67;;
25331;SDS011;13284;52.748;13.452;2022-09-21T14:20:39;0.70;;;0.47;;
25331;SDS011;13284;52.748;13.452;2022-09-21T14:23:26;0.30;;;0.30;;
25331;SDS011;13284;52.748;13.452;2022-09-21T14:25:53;0.60;;;0.53;;
25331;SDS011;13284;52.748;13.452;2022-09-21T14:31:00;0.70;;;0.60;;
25331;SDS011;13284;52.748;13.452;2022-09-21T14:33:34;2.33;;;0.70;;
25331;SDS011;13284;52.748;13.452;2022-09-21T14:36:13;0.50;;;0.50;;
25331;SDS011;13284;52.748;13.452;2022-09-21T14:38:51;0.43;;;0.40;;
25331;SDS011;13284;52.748;13.452;2022-09-21T14:41:22;1.07;;;0.73;;
25331;SDS011;13284;52.748;13.452;2022-09-21T14:43:49;1.23;;;0.40;;
25331;SDS011;13284;52.748;13.452;2022-09-21T14:49:37;0.40;;;0.40;;
25331;SDS011;13284;52.748;13.452;2022-09-21T14:55:07;0.83;;;0.57;;
25331;SDS011;13284;52.748;13.452;2022-09-21T15:00:38;1.50;;;0.60;;
25331;SDS011;13284;52.748;13.452;2022-09-21T15:03:10;0.50;;;0.40;;
25331;SDS011;13284;52.748;13.452;2022-09-21T15:06:04;0.40;;;0.33;;
25331;SDS011;13284;52.748;13.452;2022-09-21T15:12:37;0.30;;;0.30;;
25331;SDS011;13284;52.748;13.452;2022-09-21T15:15:12;0.57;;;0.40;;
25331;SDS011;13284;52.748;13.452;2022-09-21T15:17:59;0.43;;;0.43;;
25331;SDS011;13284;52.748;13.452;2022-09-21T15:20:28;0.50;;;0.40;;
25331;SDS011;13284;52.748;13.452;2022-09-21T15:22:58;0.50;;;0.50;;
25331;SDS011;13284;52.748;13.452;2022-09-21T15:25:25;1.90;;;0.53;;
25331;SDS011;13284;52.748;13.452;2022-09-21T15:27:54;0.80;;;0.43;;
25331;SDS011;13284;52.748;13.452;2022-09-21T15:30:23;0.40;;;0.40;;
25331;SDS011;13284;52.748;13.452;2022-09-21T15:32:55;0.73;;;0.43;;
25331;SDS011;13284;52.748;13.452;2022-09-21T15:35:23;0.57;;;0.53;;
25331;SDS011;13284;52.748;13.452;2022-09-21T15:37:59;1.23;;;0.50;;
25331;SDS011;13284;52.748;13.452;2022-09-21T15:42:57;1.17;;;0.30;;
25331;SDS011;13284;52.748;13.452;2022-09-21T15:45:25;0.30;;;0.30;;
25331;SDS011;13284;52.748;13.452;2022-09-21T15:47:52;0.63;;;0.40;;
25331;SDS011;13284;52.748;13.452;2022-09-21T15:50:19;0.40;;;0.30;;
25331;SDS011;13284;52.748;13.452;2022-09-21T15:52:59;0.70;;;0.43;;
25331;SDS011;13284;52.748;13.452;2022-09-21T15:55:29;1.73;;;0.67;;
25331;SDS011;13284;52.748;13.452;2022-09-21T15:57:57;0.60;;;0.50;;
25331;SDS011;13284;52.748;13.452;2022-09-21T16:00:25;0.70;;;0.40;;
25331;SDS011;13284;52.748;13.452;2022-09-21T16:03:02;0.60;;;0.40;;
25331;SDS011;13284;52.748;13.452;2022-09-21T16:05:52;0.50;;;0.50;;
25331;SDS011;13284;52.748;13.452;2022-09-21T16:08:25;0.60;;;0.40;;
25331;SDS011;13284;52.748;13.452;2022-09-21T16:11:10;0.70;;;0.50;;
25331;SDS011;13284;52.748;13.452;2022-09-21T16:14:11;0.70;;;0.70;;
25331;SDS011;13284;52.748;13.452;2022-09-21T16:17:03;1.43;;;0.63;;
25331;SDS011;13284;52.748;13.452;2022-09-21T16:22:22;1.33;;;0.90;;
25331;SDS011;13284;52.748;13.452;2022-09-21T16:24:55;2.47;;;1.57;;
25331;SDS011;13284;52.748;13.452;2022-09-21T16:27:24;1.10;;;0.87;;
25331;SDS011;13284;52.748;13.452;2022-09-21T16:29:55;1.13;;;1.03;;
25331;SDS011;13284;52.748;13.452;2022-09-21T16:34:51;3.57;;;2.30;;
25331;SDS011;13284;52.748;13.452;2022-09-21T16:39:58;5.00;;;3.03;;
25331;SDS011;13284;52.748;13.452;2022-09-21T16:42:26;2.87;;;2.43;;
25331;SDS011;13284;52.748;13.452;2022-09-21T16:44:57;2.43;;;2.20;;
25331;SDS011;13284;52.748;13.452;2022-09-21T16:47:26;2.20;;;1.60;;
25331;SDS011;13284;52.748;13.452;2022-09-21T16:49:53;2.23;;;1.67;;
25331;SDS011;13284;52.748;13.452;2022-09-21T16:52:26;1.30;;;1.20;;
25331;SDS011;13284;52.748;13.452;2022-09-21T16:54:53;1.40;;;1.20;;
25331;SDS011;13284;52.748;13.452;2022-09-21T16:57:20;1.77;;;1.10;;
25331;SDS011;13284;52.748;13.452;2022-09-21T16:59:48;0.70;;;0.70;;
25331;SDS011;13284;52.748;13.452;2022-09-21T17:02:14;1.00;;;0.80;;
25331;SDS011;13284;52.748;13.452;2022-09-21T17:04:41;0.53;;;0.50;;
25331;SDS011;13284;52.748;13.452;2022-09-21T17:07:09;1.83;;;0.50;;
25331;SDS011;13284;52.748;13.452;2022-09-21T17:09:36;0.90;;;0.50;;
25331;SDS011;13284;52.748;13.452;2022-09-21T17:12:05;0.40;;;0.40;;
25331;SDS011;13284;52.748;13.452;2022-09-21T17:14:33;1.27;;;0.67;;
25331;SDS011;13284;52.748;13.452;2022-09-21T17:17:01;2.80;;;2.13;;
25331;SDS011;13284;52.748;13.452;2022-09-21T17:19:32;1.80;;;1.40;;
25331;SDS011;13284;52.748;13.452;2022-09-21T17:21:59;0.97;;;0.80;;
25331;SDS011;13284;52.748;13.452;2022-09-21T17:24:27;1.80;;;1.20;;
25331;SDS011;13284;52.748;13.452;2022-09-21T17:26:52;3.00;;;2.30;;
25331;SDS011;13284;52.748;13.452;2022-09-21T17:29:22;2.37;;;2.13;;
25331;SDS011;13284;52.748;13.452;2022-09-21T17:31:52;2.97;;;2.60;;
25331;SDS011;13284;52.748;13.452;2022-09-21T17:34:22;1.90;;;1.80;;
25331;SDS011;13284;52.748;13.452;2022-09-21T17:36:52;2.37;;;2.17;;
25331;SDS011;13284;52.748;13.452;2022-09-21T17:39:19;2.47;;;2.27;;
25331;SDS011;13284;52.748;13.452;2022-09-21T17:42:02;3.53;;;2.30;;
25331;SDS011;13284;52.748;13.452;2022-09-21T17:47:16;3.47;;;1.93;;
25331;SDS011;13284;52.748;13.452;2022-09-21T17:49:46;2.27;;;2.07;;